SWR3TA LSZH-EKCH
Flight info
| Callsign | SWR3TA |
|---|---|
| Flight time | 1h 31m |
| Altitude | 33000 |
| Route | DEGES Z1 ETAGO DCT OSBIT DCT DEMAB DCT FEDZA Y172 SISMI DCT LODRO M736 BAKDO P12 ARGAD Z400 TIDVU |
| Aircraft | A321/M-SDE3FGHIRWY/LB1 |
Departure
| Time | 2026-05-04 17:56 |
|---|---|
| Airport | Zürich Airport (LSZH) |
Arrival
| Time | 2026-05-04 19:27 |
|---|---|
| Airport | Copenhagen Kastrup Airport (EKCH) |
| Time | Latitude | Longitude | Altitude | Speed | Heading |
|---|---|---|---|---|---|
| 2026-05-04 17:27 | 47.45597 | 8.55536 | 1404 ft | 0 kts | 6° |
| 2026-05-04 17:52 | 47.45620 | 8.55540 | 1404 ft | 6 kts | 6° |
| 2026-05-04 17:52 | 47.45655 | 8.55589 | 1407 ft | 10 kts | 79° |
| 2026-05-04 17:52 | 47.45649 | 8.55711 | 1405 ft | 14 kts | 97° |
| 2026-05-04 17:53 | 47.45639 | 8.55854 | 1408 ft | 14 kts | 96° |
| 2026-05-04 17:53 | 47.45627 | 8.56025 | 1410 ft | 17 kts | 95° |
| 2026-05-04 17:53 | 47.45615 | 8.56200 | 1414 ft | 18 kts | 95° |
| 2026-05-04 17:53 | 47.45602 | 8.56372 | 1418 ft | 15 kts | 96° |
| 2026-05-04 17:54 | 47.45591 | 8.56526 | 1418 ft | 14 kts | 96° |
| 2026-05-04 17:54 | 47.45582 | 8.56654 | 1418 ft | 12 kts | 96° |
| 2026-05-04 17:54 | 47.45571 | 8.56795 | 1420 ft | 13 kts | 96° |
| 2026-05-04 17:54 | 47.45563 | 8.56913 | 1420 ft | 9 kts | 96° |
| 2026-05-04 17:55 | 47.45589 | 8.57009 | 1423 ft | 12 kts | 32° |
| 2026-05-04 17:55 | 47.45665 | 8.56960 | 1424 ft | 18 kts | 285° |
| 2026-05-04 17:55 | 47.45683 | 8.56721 | 1421 ft | 29 kts | 276° |
| 2026-05-04 17:55 | 47.45713 | 8.56293 | 1414 ft | 71 kts | 276° |
| 2026-05-04 17:56 | 47.45795 | 8.55145 | 1403 ft | 150 kts | 276° |
| 2026-05-04 17:56 | 47.45914 | 8.53449 | 1954 ft | 169 kts | 274° |
| 2026-05-04 17:56 | 47.46036 | 8.51725 | 2998 ft | 169 kts | 277° |
| 2026-05-04 17:56 | 47.46162 | 8.50001 | 3582 ft | 175 kts | 277° |
| 2026-05-04 17:57 | 47.46193 | 8.48104 | 3786 ft | 196 kts | 257° |
| 2026-05-04 17:57 | 47.45537 | 8.46243 | 4107 ft | 209 kts | 240° |
| 2026-05-04 17:57 | 47.44786 | 8.44354 | 4551 ft | 218 kts | 241° |
| 2026-05-04 17:57 | 47.44029 | 8.42328 | 4974 ft | 231 kts | 242° |
| 2026-05-04 17:58 | 47.43287 | 8.40242 | 5784 ft | 229 kts | 241° |
| 2026-05-04 17:58 | 47.42477 | 8.38239 | 6591 ft | 228 kts | 225° |
| 2026-05-04 17:58 | 47.41151 | 8.37022 | 7234 ft | 227 kts | 191° |
| 2026-05-04 17:58 | 47.39595 | 8.37125 | 7976 ft | 228 kts | 161° |
| 2026-05-04 17:59 | 47.38258 | 8.38369 | 8697 ft | 232 kts | 135° |
| 2026-05-04 17:59 | 47.37428 | 8.40436 | 9405 ft | 240 kts | 109° |
| 2026-05-04 17:59 | 47.37341 | 8.45683 | 10204 ft | 280 kts | 89° |
| 2026-05-04 18:00 | 47.37498 | 8.48662 | 10422 ft | 304 kts | 88° |
| 2026-05-04 18:00 | 47.37694 | 8.51882 | 10593 ft | 327 kts | 87° |
| 2026-05-04 18:00 | 47.37908 | 8.55340 | 10769 ft | 348 kts | 87° |
| 2026-05-04 18:00 | 47.38122 | 8.58894 | 11282 ft | 356 kts | 87° |
| 2026-05-04 18:01 | 47.38339 | 8.62604 | 11900 ft | 361 kts | 87° |
| 2026-05-04 18:01 | 47.38542 | 8.66272 | 12517 ft | 366 kts | 88° |
| 2026-05-04 18:01 | 47.38743 | 8.70039 | 13145 ft | 371 kts | 87° |
| 2026-05-04 18:02 | 47.39148 | 8.77735 | 14330 ft | 381 kts | 87° |
| 2026-05-04 18:02 | 47.39347 | 8.81643 | 14911 ft | 385 kts | 88° |
| 2026-05-04 18:02 | 47.39545 | 8.85599 | 15506 ft | 388 kts | 88° |
| 2026-05-04 18:02 | 47.39743 | 8.89585 | 16094 ft | 391 kts | 88° |
| 2026-05-04 18:03 | 47.39945 | 8.93615 | 16644 ft | 396 kts | 88° |
| 2026-05-04 18:03 | 47.40146 | 8.97680 | 17207 ft | 399 kts | 88° |
| 2026-05-04 18:03 | 47.40349 | 9.01787 | 17752 ft | 402 kts | 88° |
| 2026-05-04 18:03 | 47.40554 | 9.05927 | 18291 ft | 406 kts | 88° |
| 2026-05-04 18:04 | 47.40759 | 9.10101 | 18764 ft | 409 kts | 88° |
| 2026-05-04 18:04 | 47.40963 | 9.14300 | 19231 ft | 412 kts | 88° |
| 2026-05-04 18:04 | 47.41371 | 9.22794 | 20176 ft | 417 kts | 88° |
| 2026-05-04 18:05 | 47.41581 | 9.27084 | 20631 ft | 420 kts | 88° |
| 2026-05-04 18:05 | 47.41810 | 9.31398 | 21094 ft | 424 kts | 85° |
| 2026-05-04 18:05 | 47.42539 | 9.35634 | 21530 ft | 430 kts | 68° |
| 2026-05-04 18:05 | 47.44044 | 9.39388 | 21958 ft | 434 kts | 50° |
| 2026-05-04 18:06 | 47.49065 | 9.44289 | 22804 ft | 436 kts | 13° |
| 2026-05-04 18:06 | 47.52014 | 9.44913 | 23201 ft | 435 kts | 359° |
| 2026-05-04 18:06 | 47.55050 | 9.45054 | 23617 ft | 438 kts | 359° |
| 2026-05-04 18:07 | 47.58103 | 9.45193 | 23993 ft | 440 kts | 359° |
| 2026-05-04 18:07 | 47.61177 | 9.45334 | 24363 ft | 443 kts | 359° |
| 2026-05-04 18:07 | 47.64261 | 9.45478 | 24737 ft | 445 kts | 360° |
| 2026-05-04 18:07 | 47.67361 | 9.45630 | 25103 ft | 447 kts | 360° |
| 2026-05-04 18:08 | 47.70472 | 9.45788 | 25475 ft | 449 kts | 360° |
| 2026-05-04 18:08 | 47.73606 | 9.45950 | 25830 ft | 451 kts | 360° |
| 2026-05-04 18:08 | 47.76754 | 9.46113 | 26181 ft | 454 kts | 360° |
| 2026-05-04 18:08 | 47.79913 | 9.46274 | 26537 ft | 456 kts | 360° |
| 2026-05-04 18:09 | 47.86286 | 9.46397 | 27240 ft | 460 kts | 358° |
| 2026-05-04 18:09 | 47.92717 | 9.46302 | 27900 ft | 465 kts | 357° |
| 2026-05-04 18:10 | 47.95961 | 9.46250 | 28208 ft | 467 kts | 357° |
| 2026-05-04 18:10 | 47.99219 | 9.46212 | 28510 ft | 470 kts | 357° |
| 2026-05-04 18:10 | 48.02508 | 9.46196 | 28822 ft | 473 kts | 358° |
| 2026-05-04 18:10 | 48.05798 | 9.46195 | 29113 ft | 475 kts | 358° |
| 2026-05-04 18:11 | 48.09106 | 9.46203 | 29412 ft | 477 kts | 358° |
| 2026-05-04 18:11 | 48.12444 | 9.46208 | 29718 ft | 479 kts | 358° |
| 2026-05-04 18:11 | 48.15778 | 9.46208 | 30014 ft | 482 kts | 358° |
| 2026-05-04 18:11 | 48.19142 | 9.46202 | 30309 ft | 482 kts | 358° |
| 2026-05-04 18:12 | 48.22484 | 9.46196 | 30704 ft | 481 kts | 358° |
| 2026-05-04 18:12 | 48.25819 | 9.46194 | 31091 ft | 479 kts | 358° |
| 2026-05-04 18:12 | 48.29158 | 9.46192 | 31504 ft | 478 kts | 358° |
| 2026-05-04 18:12 | 48.32444 | 9.46193 | 31865 ft | 478 kts | 358° |
| 2026-05-04 18:13 | 48.35758 | 9.46198 | 31971 ft | 477 kts | 358° |
| 2026-05-04 18:13 | 48.39070 | 9.46203 | 31982 ft | 476 kts | 358° |
| 2026-05-04 18:14 | 48.49035 | 9.46208 | 31981 ft | 484 kts | 358° |
| 2026-05-04 18:14 | 48.55839 | 9.46210 | 31981 ft | 492 kts | 358° |
| 2026-05-04 18:15 | 48.69529 | 9.46036 | 31978 ft | 493 kts | 357° |
| 2026-05-04 18:16 | 48.76381 | 9.46823 | 31984 ft | 496 kts | 7° |
| 2026-05-04 18:16 | 48.83215 | 9.48457 | 31978 ft | 496 kts | 7° |
| 2026-05-04 18:17 | 48.93432 | 9.50862 | 31979 ft | 496 kts | 7° |
| 2026-05-04 18:18 | 49.03664 | 9.53271 | 31979 ft | 496 kts | 7° |
| 2026-05-04 18:18 | 49.10481 | 9.54891 | 31977 ft | 496 kts | 7° |
| 2026-05-04 18:19 | 49.20709 | 9.57330 | 31976 ft | 495 kts | 6° |
| 2026-05-04 18:19 | 49.27520 | 9.58959 | 31982 ft | 495 kts | 6° |
| 2026-05-04 18:20 | 49.34152 | 9.60545 | 31980 ft | 494 kts | 6° |
| 2026-05-04 18:20 | 49.40937 | 9.62176 | 31979 ft | 494 kts | 6° |
| 2026-05-04 18:21 | 49.47685 | 9.63809 | 31978 ft | 494 kts | 6° |
| 2026-05-04 18:21 | 49.54480 | 9.65450 | 31980 ft | 494 kts | 6° |
| 2026-05-04 18:22 | 49.61262 | 9.67086 | 31981 ft | 493 kts | 6° |
| 2026-05-04 18:22 | 49.68043 | 9.68737 | 31977 ft | 493 kts | 6° |
| 2026-05-04 18:23 | 49.74830 | 9.70406 | 31975 ft | 493 kts | 6° |
| 2026-05-04 18:23 | 49.81613 | 9.72068 | 31973 ft | 493 kts | 6° |
| 2026-05-04 18:24 | 49.88390 | 9.73723 | 31977 ft | 493 kts | 6° |
| 2026-05-04 18:24 | 49.95167 | 9.75382 | 31974 ft | 493 kts | 6° |
| 2026-05-04 18:25 | 50.01933 | 9.77043 | 31973 ft | 493 kts | 6° |
| 2026-05-04 18:25 | 50.08619 | 9.79401 | 31984 ft | 497 kts | 17° |
| 2026-05-04 18:26 | 50.14051 | 9.82393 | 31982 ft | 497 kts | 17° |
| 2026-05-04 18:26 | 50.20565 | 9.86011 | 31972 ft | 497 kts | 17° |
| 2026-05-04 18:27 | 50.27077 | 9.89647 | 31982 ft | 497 kts | 17° |
| 2026-05-04 18:27 | 50.30338 | 9.91470 | 32112 ft | 498 kts | 17° |
| 2026-05-04 18:27 | 50.33599 | 9.93293 | 32425 ft | 497 kts | 17° |
| 2026-05-04 18:28 | 50.36851 | 9.95111 | 32737 ft | 495 kts | 17° |
| 2026-05-04 18:28 | 50.40099 | 9.96927 | 32940 ft | 495 kts | 17° |
| 2026-05-04 18:28 | 50.46571 | 10.00559 | 32976 ft | 494 kts | 17° |
| 2026-05-04 18:29 | 50.53040 | 10.04201 | 32977 ft | 494 kts | 17° |
| 2026-05-04 18:29 | 50.59511 | 10.07844 | 32983 ft | 494 kts | 17° |
| 2026-05-04 18:30 | 50.69212 | 10.13344 | 32983 ft | 494 kts | 17° |
| 2026-05-04 18:31 | 50.75669 | 10.17020 | 32990 ft | 494 kts | 17° |
| 2026-05-04 18:31 | 50.82134 | 10.20703 | 32997 ft | 494 kts | 17° |
| 2026-05-04 18:32 | 50.88594 | 10.24398 | 32996 ft | 494 kts | 17° |
| 2026-05-04 18:32 | 50.95010 | 10.28089 | 32993 ft | 493 kts | 17° |
| 2026-05-04 18:33 | 51.01460 | 10.31808 | 32991 ft | 493 kts | 17° |
| 2026-05-04 18:33 | 51.07793 | 10.36018 | 32991 ft | 497 kts | 28° |
| 2026-05-04 18:34 | 51.13611 | 10.42044 | 32990 ft | 499 kts | 31° |
| 2026-05-04 18:34 | 51.19394 | 10.48145 | 32989 ft | 499 kts | 31° |
| 2026-05-04 18:35 | 51.25182 | 10.54289 | 32982 ft | 499 kts | 31° |
| 2026-05-04 18:35 | 51.30956 | 10.60421 | 32978 ft | 499 kts | 31° |
| 2026-05-04 18:36 | 51.36737 | 10.66583 | 32975 ft | 499 kts | 31° |
| 2026-05-04 18:36 | 51.42421 | 10.72966 | 32972 ft | 500 kts | 34° |
| 2026-05-04 18:37 | 51.47939 | 10.79768 | 32973 ft | 500 kts | 36° |
| 2026-05-04 18:37 | 51.53362 | 10.86775 | 32970 ft | 502 kts | 42° |
| 2026-05-04 18:38 | 51.58294 | 10.94594 | 32977 ft | 502 kts | 43° |
| 2026-05-04 18:38 | 51.60949 | 10.98200 | 32973 ft | 498 kts | 31° |
| 2026-05-04 18:38 | 51.63995 | 11.00787 | 32969 ft | 494 kts | 21° |
| 2026-05-04 18:39 | 51.70276 | 11.05308 | 32956 ft | 494 kts | 21° |
| 2026-05-04 18:39 | 51.76563 | 11.09806 | 32950 ft | 495 kts | 21° |
| 2026-05-04 18:40 | 51.82860 | 11.14332 | 32946 ft | 495 kts | 21° |
| 2026-05-04 18:40 | 51.89150 | 11.18882 | 32941 ft | 495 kts | 21° |
| 2026-05-04 18:41 | 51.95443 | 11.23456 | 32940 ft | 496 kts | 21° |
| 2026-05-04 18:41 | 52.01733 | 11.28048 | 32941 ft | 496 kts | 21° |
| 2026-05-04 18:42 | 52.08037 | 11.32655 | 32945 ft | 496 kts | 21° |
| 2026-05-04 18:42 | 52.14336 | 11.37274 | 32953 ft | 497 kts | 21° |
| 2026-05-04 18:43 | 52.20637 | 11.41906 | 32961 ft | 497 kts | 21° |
| 2026-05-04 18:43 | 52.26947 | 11.46550 | 32964 ft | 497 kts | 21° |
| 2026-05-04 18:44 | 52.33253 | 11.51208 | 32967 ft | 498 kts | 21° |
| 2026-05-04 18:44 | 52.39563 | 11.55882 | 32969 ft | 498 kts | 20° |
| 2026-05-04 18:45 | 52.45869 | 11.60573 | 32968 ft | 498 kts | 21° |
| 2026-05-04 18:45 | 52.52174 | 11.65300 | 32972 ft | 497 kts | 21° |
| 2026-05-04 18:46 | 52.58461 | 11.70027 | 32962 ft | 497 kts | 20° |
| 2026-05-04 18:46 | 52.64749 | 11.74747 | 32963 ft | 497 kts | 20° |
| 2026-05-04 18:47 | 52.71046 | 11.79482 | 32962 ft | 497 kts | 20° |
| 2026-05-04 18:47 | 52.77293 | 11.84203 | 32966 ft | 497 kts | 20° |
| 2026-05-04 18:48 | 52.83582 | 11.88981 | 32971 ft | 497 kts | 20° |
| 2026-05-04 18:48 | 52.89872 | 11.93777 | 32977 ft | 498 kts | 20° |
| 2026-05-04 18:49 | 52.96161 | 11.98575 | 32971 ft | 498 kts | 20° |
| 2026-05-04 18:49 | 53.02450 | 12.03388 | 32981 ft | 498 kts | 20° |
| 2026-05-04 18:50 | 53.08736 | 12.08224 | 32973 ft | 498 kts | 20° |
| 2026-05-04 18:50 | 53.15018 | 12.13067 | 32968 ft | 498 kts | 20° |
| 2026-05-04 18:51 | 53.21302 | 12.17924 | 32973 ft | 498 kts | 20° |
| 2026-05-04 18:51 | 53.27592 | 12.22806 | 32976 ft | 498 kts | 20° |
| 2026-05-04 18:52 | 53.33866 | 12.27701 | 32979 ft | 498 kts | 20° |
| 2026-05-04 18:52 | 53.40148 | 12.32611 | 32981 ft | 498 kts | 20° |
| 2026-05-04 18:53 | 53.46431 | 12.37528 | 32986 ft | 498 kts | 20° |
| 2026-05-04 18:53 | 53.52705 | 12.42448 | 32987 ft | 498 kts | 20° |
| 2026-05-04 18:54 | 53.58933 | 12.47363 | 32989 ft | 497 kts | 20° |
| 2026-05-04 18:54 | 53.65188 | 12.52327 | 32994 ft | 497 kts | 20° |
| 2026-05-04 18:55 | 53.71443 | 12.57294 | 32663 ft | 496 kts | 20° |
| 2026-05-04 18:55 | 53.77697 | 12.62263 | 31707 ft | 499 kts | 20° |
| 2026-05-04 18:55 | 53.80852 | 12.64777 | 31163 ft | 502 kts | 20° |
| 2026-05-04 18:56 | 53.84019 | 12.67308 | 30606 ft | 505 kts | 20° |
| 2026-05-04 18:56 | 53.87206 | 12.69861 | 30047 ft | 508 kts | 20° |
| 2026-05-04 18:56 | 53.90411 | 12.72436 | 29438 ft | 511 kts | 20° |
| 2026-05-04 18:56 | 53.93626 | 12.75027 | 28882 ft | 512 kts | 20° |
| 2026-05-04 18:57 | 53.96849 | 12.77628 | 28305 ft | 513 kts | 20° |
| 2026-05-04 18:57 | 54.00064 | 12.80227 | 27720 ft | 513 kts | 20° |
| 2026-05-04 18:57 | 54.03288 | 12.82840 | 27116 ft | 513 kts | 20° |
| 2026-05-04 18:57 | 54.06510 | 12.85451 | 26497 ft | 513 kts | 20° |
| 2026-05-04 18:58 | 54.09734 | 12.88062 | 25867 ft | 513 kts | 20° |
| 2026-05-04 18:58 | 54.12962 | 12.90678 | 25231 ft | 514 kts | 21° |
| 2026-05-04 18:58 | 54.16187 | 12.93294 | 24579 ft | 514 kts | 21° |
| 2026-05-04 18:58 | 54.19415 | 12.95920 | 23941 ft | 514 kts | 21° |
| 2026-05-04 18:59 | 54.22645 | 12.98558 | 23232 ft | 511 kts | 21° |
| 2026-05-04 18:59 | 54.25835 | 13.01176 | 22252 ft | 507 kts | 21° |
| 2026-05-04 18:59 | 54.28996 | 13.03773 | 21487 ft | 500 kts | 21° |
| 2026-05-04 18:59 | 54.32076 | 13.06311 | 21246 ft | 488 kts | 21° |
| 2026-05-04 19:00 | 54.35139 | 13.08834 | 20856 ft | 485 kts | 21° |
| 2026-05-04 19:00 | 54.38115 | 13.11295 | 20695 ft | 466 kts | 21° |
| 2026-05-04 19:00 | 54.40981 | 13.13674 | 20370 ft | 452 kts | 21° |
| 2026-05-04 19:00 | 54.43798 | 13.16002 | 19814 ft | 445 kts | 21° |
| 2026-05-04 19:01 | 54.46574 | 13.18290 | 19224 ft | 440 kts | 21° |
| 2026-05-04 19:01 | 54.49321 | 13.20554 | 18632 ft | 436 kts | 21° |
| 2026-05-04 19:01 | 54.52065 | 13.22677 | 18187 ft | 431 kts | 15° |
| 2026-05-04 19:01 | 54.54993 | 13.23740 | 17922 ft | 429 kts | 359° |
| 2026-05-04 19:02 | 54.57934 | 13.23413 | 17656 ft | 420 kts | 343° |
| 2026-05-04 19:02 | 54.60655 | 13.21753 | 17402 ft | 411 kts | 328° |
| 2026-05-04 19:02 | 54.62961 | 13.18982 | 17131 ft | 402 kts | 314° |
| 2026-05-04 19:02 | 54.64742 | 13.15330 | 16870 ft | 395 kts | 300° |
| 2026-05-04 19:03 | 54.66205 | 13.11279 | 16608 ft | 402 kts | 299° |
| 2026-05-04 19:03 | 54.67695 | 13.07162 | 16351 ft | 406 kts | 299° |
| 2026-05-04 19:03 | 54.69192 | 13.03018 | 16091 ft | 407 kts | 299° |
| 2026-05-04 19:03 | 54.70688 | 12.98866 | 15838 ft | 408 kts | 299° |
| 2026-05-04 19:04 | 54.72170 | 12.94747 | 15587 ft | 408 kts | 299° |
| 2026-05-04 19:04 | 54.73575 | 12.90425 | 15325 ft | 405 kts | 290° |
| 2026-05-04 19:04 | 54.74200 | 12.85815 | 15097 ft | 398 kts | 272° |
| 2026-05-04 19:04 | 54.73921 | 12.81073 | 14939 ft | 397 kts | 256° |
| 2026-05-04 19:05 | 54.73214 | 12.76452 | 14973 ft | 398 kts | 255° |
| 2026-05-04 19:05 | 54.72489 | 12.71816 | 14965 ft | 399 kts | 255° |
| 2026-05-04 19:05 | 54.71762 | 12.67189 | 14975 ft | 399 kts | 255° |
| 2026-05-04 19:05 | 54.71062 | 12.62553 | 14966 ft | 399 kts | 259° |
| 2026-05-04 19:06 | 54.70968 | 12.57783 | 14968 ft | 399 kts | 277° |
| 2026-05-04 19:06 | 54.71624 | 12.53103 | 14668 ft | 401 kts | 285° |
| 2026-05-04 19:06 | 54.72414 | 12.48533 | 14277 ft | 391 kts | 285° |
| 2026-05-04 19:06 | 54.73188 | 12.44097 | 13897 ft | 380 kts | 285° |
| 2026-05-04 19:07 | 54.73980 | 12.39779 | 13490 ft | 376 kts | 290° |
| 2026-05-04 19:07 | 54.75285 | 12.35908 | 13208 ft | 371 kts | 306° |
| 2026-05-04 19:07 | 54.77163 | 12.32940 | 12944 ft | 365 kts | 323° |
| 2026-05-04 19:07 | 54.79467 | 12.31119 | 12687 ft | 367 kts | 341° |
| 2026-05-04 19:08 | 54.82023 | 12.30624 | 12433 ft | 374 kts | 359° |
| 2026-05-04 19:08 | 54.84577 | 12.31559 | 12174 ft | 381 kts | 18° |
| 2026-05-04 19:08 | 54.86981 | 12.33547 | 11929 ft | 387 kts | 23° |
| 2026-05-04 19:08 | 54.89405 | 12.35642 | 11676 ft | 390 kts | 23° |
| 2026-05-04 19:09 | 54.91841 | 12.37747 | 11422 ft | 390 kts | 23° |
| 2026-05-04 19:09 | 54.94268 | 12.39837 | 11177 ft | 389 kts | 23° |
| 2026-05-04 19:09 | 54.96684 | 12.41917 | 10928 ft | 387 kts | 23° |
| 2026-05-04 19:09 | 54.99093 | 12.43994 | 10686 ft | 385 kts | 23° |
| 2026-05-04 19:10 | 55.01490 | 12.46063 | 10443 ft | 384 kts | 23° |
| 2026-05-04 19:10 | 55.03874 | 12.48126 | 10206 ft | 382 kts | 23° |
| 2026-05-04 19:10 | 55.06252 | 12.50186 | 9965 ft | 380 kts | 23° |
| 2026-05-04 19:10 | 55.08605 | 12.52228 | 9703 ft | 373 kts | 23° |
| 2026-05-04 19:11 | 55.10859 | 12.54190 | 9431 ft | 361 kts | 23° |
| 2026-05-04 19:11 | 55.13069 | 12.56118 | 9178 ft | 350 kts | 23° |
| 2026-05-04 19:11 | 55.15242 | 12.58012 | 8913 ft | 339 kts | 23° |
| 2026-05-04 19:11 | 55.17297 | 12.59803 | 8653 ft | 330 kts | 23° |
| 2026-05-04 19:12 | 55.19322 | 12.61570 | 8395 ft | 321 kts | 23° |
| 2026-05-04 19:12 | 55.23077 | 12.64831 | 7915 ft | 276 kts | 18° |
| 2026-05-04 19:12 | 55.24836 | 12.65894 | 7734 ft | 264 kts | 13° |
| 2026-05-04 19:13 | 55.26577 | 12.66873 | 7553 ft | 262 kts | 13° |
| 2026-05-04 19:13 | 55.28315 | 12.67858 | 7352 ft | 262 kts | 13° |
| 2026-05-04 19:13 | 55.30044 | 12.68841 | 7159 ft | 262 kts | 13° |
| 2026-05-04 19:13 | 55.31769 | 12.69823 | 6963 ft | 260 kts | 13° |
| 2026-05-04 19:14 | 55.33491 | 12.70805 | 6771 ft | 259 kts | 13° |
| 2026-05-04 19:14 | 55.35205 | 12.71779 | 6574 ft | 258 kts | 13° |
| 2026-05-04 19:14 | 55.36908 | 12.72745 | 6381 ft | 257 kts | 13° |
| 2026-05-04 19:14 | 55.38610 | 12.73718 | 6179 ft | 257 kts | 14° |
| 2026-05-04 19:15 | 55.40302 | 12.74690 | 5972 ft | 256 kts | 14° |
| 2026-05-04 19:15 | 55.41990 | 12.75660 | 5769 ft | 254 kts | 14° |
| 2026-05-04 19:15 | 55.43667 | 12.76619 | 5564 ft | 253 kts | 14° |
| 2026-05-04 19:15 | 55.45342 | 12.77578 | 5362 ft | 252 kts | 14° |
| 2026-05-04 19:16 | 55.46445 | 12.78211 | 5229 ft | 252 kts | 14° |
| 2026-05-04 19:16 | 55.48102 | 12.79163 | 5027 ft | 250 kts | 14° |
| 2026-05-04 19:16 | 55.49758 | 12.80117 | 4827 ft | 250 kts | 14° |
| 2026-05-04 19:16 | 55.51401 | 12.81063 | 4627 ft | 248 kts | 14° |
| 2026-05-04 19:17 | 55.53578 | 12.82317 | 4346 ft | 247 kts | 14° |
| 2026-05-04 19:17 | 55.55207 | 12.83256 | 4144 ft | 245 kts | 14° |
| 2026-05-04 19:17 | 55.56295 | 12.83914 | 4054 ft | 245 kts | 17° |
| 2026-05-04 19:17 | 55.57883 | 12.85001 | 3999 ft | 245 kts | 18° |
| 2026-05-04 19:18 | 55.59457 | 12.86144 | 4005 ft | 245 kts | 19° |
| 2026-05-04 19:18 | 55.61011 | 12.87291 | 4001 ft | 237 kts | 19° |
| 2026-05-04 19:18 | 55.62497 | 12.88518 | 4000 ft | 237 kts | 27° |
| 2026-05-04 19:18 | 55.63825 | 12.90264 | 4008 ft | 239 kts | 39° |
| 2026-05-04 19:19 | 55.65067 | 12.92230 | 3833 ft | 240 kts | 38° |
| 2026-05-04 19:19 | 55.66307 | 12.94173 | 3525 ft | 236 kts | 38° |
| 2026-05-04 19:19 | 55.67535 | 12.96081 | 3221 ft | 234 kts | 37° |
| 2026-05-04 19:19 | 55.68810 | 12.97748 | 3012 ft | 225 kts | 31° |
| 2026-05-04 19:20 | 55.70082 | 12.99279 | 3011 ft | 214 kts | 31° |
| 2026-05-04 19:20 | 55.71295 | 13.00733 | 3003 ft | 212 kts | 30° |
| 2026-05-04 19:20 | 55.72527 | 13.02206 | 2999 ft | 211 kts | 31° |
| 2026-05-04 19:20 | 55.73776 | 13.03442 | 2989 ft | 207 kts | 13° |
| 2026-05-04 19:21 | 55.75167 | 13.03343 | 2994 ft | 200 kts | 336° |
| 2026-05-04 19:21 | 55.76236 | 13.01856 | 3000 ft | 196 kts | 309° |
| 2026-05-04 19:21 | 55.76960 | 12.99839 | 2993 ft | 195 kts | 287° |
| 2026-05-04 19:21 | 55.76940 | 12.97440 | 3003 ft | 197 kts | 259° |
| 2026-05-04 19:22 | 55.76589 | 12.95085 | 2998 ft | 197 kts | 256° |
| 2026-05-04 19:22 | 55.76202 | 12.92745 | 2998 ft | 197 kts | 255° |
| 2026-05-04 19:22 | 55.75812 | 12.90411 | 3000 ft | 197 kts | 256° |
| 2026-05-04 19:22 | 55.75420 | 12.88087 | 3002 ft | 197 kts | 255° |
| 2026-05-04 19:23 | 55.74799 | 12.85913 | 2998 ft | 201 kts | 233° |
| 2026-05-04 19:23 | 55.73768 | 12.84222 | 2942 ft | 203 kts | 224° |
| 2026-05-04 19:23 | 55.72702 | 12.82571 | 2729 ft | 203 kts | 225° |
| 2026-05-04 19:23 | 55.71643 | 12.80922 | 2472 ft | 202 kts | 224° |
| 2026-05-04 19:24 | 55.70594 | 12.79287 | 2197 ft | 196 kts | 225° |
| 2026-05-04 19:24 | 55.69622 | 12.77777 | 1952 ft | 175 kts | 225° |
| 2026-05-04 19:24 | 55.68738 | 12.76400 | 1734 ft | 164 kts | 226° |
| 2026-05-04 19:24 | 55.67894 | 12.75084 | 1493 ft | 158 kts | 225° |
| 2026-05-04 19:25 | 55.67111 | 12.73867 | 1282 ft | 144 kts | 225° |
| 2026-05-04 19:25 | 55.66371 | 12.72716 | 1070 ft | 139 kts | 225° |
| 2026-05-04 19:25 | 55.65653 | 12.71591 | 856 ft | 136 kts | 225° |
| 2026-05-04 19:25 | 55.64933 | 12.70494 | 657 ft | 138 kts | 223° |
| 2026-05-04 19:26 | 55.64205 | 12.69404 | 442 ft | 136 kts | 225° |
| 2026-05-04 19:26 | 55.63505 | 12.68288 | 304 ft | 138 kts | 225° |
| 2026-05-04 19:26 | 55.62788 | 12.67160 | 122 ft | 138 kts | 225° |
| 2026-05-04 19:26 | 55.62087 | 12.66063 | 27 ft | 129 kts | 222° |
| 2026-05-04 19:27 | 55.61461 | 12.65088 | 27 ft | 108 kts | 221° |
| 2026-05-04 19:27 | 55.60939 | 12.64279 | 28 ft | 92 kts | 221° |
| 2026-05-04 19:27 | 55.60494 | 12.63525 | 26 ft | 95 kts | 227° |
| 2026-05-04 19:27 | 55.60115 | 12.62727 | 24 ft | 45 kts | 233° |
| 2026-05-04 19:28 | 55.60104 | 12.62525 | 26 ft | 12 kts | 298° |
| 2026-05-04 19:28 | 55.60136 | 12.62435 | 25 ft | 6 kts | 302° |
| 2026-05-04 19:28 | 55.60161 | 12.62383 | 24 ft | 10 kts | 314° |
| 2026-05-04 19:28 | 55.60200 | 12.62335 | 24 ft | 3 kts | 349° |
| 2026-05-04 19:29 | 55.60232 | 12.62357 | 24 ft | 8 kts | 33° |
| 2026-05-04 19:29 | 55.60270 | 12.62412 | 24 ft | 6 kts | 40° |
| 2026-05-04 19:29 | 55.60300 | 12.62458 | 26 ft | 5 kts | 41° |
| 2026-05-04 19:29 | 55.60325 | 12.62497 | 24 ft | 4 kts | 41° |
| 2026-05-04 19:30 | 55.60354 | 12.62543 | 24 ft | 10 kts | 41° |
| 2026-05-04 19:30 | 55.60407 | 12.62626 | 25 ft | 10 kts | 41° |
| 2026-05-04 19:30 | 55.60457 | 12.62703 | 24 ft | 9 kts | 41° |
| 2026-05-04 19:30 | 55.60515 | 12.62792 | 24 ft | 15 kts | 41° |
| 2026-05-04 19:31 | 55.60593 | 12.62915 | 25 ft | 15 kts | 41° |
| 2026-05-04 19:31 | 55.60682 | 12.62999 | 26 ft | 16 kts | 26° |
| 2026-05-04 19:31 | 55.60749 | 12.63170 | 24 ft | 17 kts | 71° |
| 2026-05-04 19:31 | 55.60787 | 12.63370 | 24 ft | 18 kts | 71° |
| 2026-05-04 19:32 | 55.60834 | 12.63570 | 24 ft | 17 kts | 57° |
| 2026-05-04 19:32 | 55.60929 | 12.63707 | 25 ft | 18 kts | 33° |
| 2026-05-04 19:32 | 55.61040 | 12.63834 | 25 ft | 22 kts | 33° |
| 2026-05-04 19:32 | 55.61169 | 12.63982 | 25 ft | 16 kts | 33° |
| 2026-05-04 19:33 | 55.61190 | 12.64006 | 24 ft | 0 kts | 33° |
| 2026-05-04 19:34 | 55.61193 | 12.64009 | 24 ft | 3 kts | 33° |
| 2026-05-04 19:34 | 55.61252 | 12.64076 | 26 ft | 16 kts | 33° |
| 2026-05-04 19:34 | 55.61352 | 12.64192 | 26 ft | 20 kts | 33° |
| 2026-05-04 19:34 | 55.61487 | 12.64348 | 24 ft | 24 kts | 33° |
| 2026-05-04 19:35 | 55.61605 | 12.64483 | 25 ft | 18 kts | 33° |
| 2026-05-04 19:35 | 55.61701 | 12.64568 | 24 ft | 15 kts | 5° |
| 2026-05-04 19:35 | 55.61798 | 12.64543 | 24 ft | 12 kts | 349° |
| 2026-05-04 19:35 | 55.61852 | 12.64525 | 24 ft | 5 kts | 349° |
| 2026-05-04 19:36 | 55.61877 | 12.64516 | 24 ft | 0 kts | 349° |
| 2026-05-04 19:37 | 55.61891 | 12.64511 | 24 ft | 8 kts | 349° |
| 2026-05-04 19:37 | 55.61976 | 12.64483 | 26 ft | 14 kts | 349° |
| 2026-05-04 19:37 | 55.62073 | 12.64451 | 24 ft | 14 kts | 349° |
| 2026-05-04 19:38 | 55.62175 | 12.64416 | 24 ft | 16 kts | 349° |
| 2026-05-04 19:38 | 55.62266 | 12.64325 | 22 ft | 15 kts | 304° |
| 2026-05-04 19:38 | 55.62328 | 12.64158 | 20 ft | 17 kts | 303° |
| 2026-05-04 19:38 | 55.62393 | 12.63984 | 22 ft | 17 kts | 303° |
| 2026-05-04 19:39 | 55.62463 | 12.63823 | 22 ft | 16 kts | 323° |
| 2026-05-04 19:39 | 55.62560 | 12.63767 | 24 ft | 13 kts | 357° |
| 2026-05-04 19:39 | 55.62630 | 12.63790 | 24 ft | 8 kts | 23° |
| 2026-05-04 19:39 | 55.62674 | 12.63837 | 24 ft | 6 kts | 33° |
| 2026-05-04 19:40 | 55.62691 | 12.63857 | 26 ft | 2 kts | 33° |
| 2026-05-04 19:40 | 55.62699 | 12.63866 | 25 ft | 3 kts | 33° |
| 2026-05-04 19:40 | 55.62746 | 12.63920 | 24 ft | 12 kts | 33° |
| 2026-05-04 19:40 | 55.62814 | 12.63999 | 25 ft | 12 kts | 33° |
| 2026-05-04 19:41 | 55.62858 | 12.64050 | 24 ft | 11 kts | 33° |